Pagrindinis puslapis
METAR-TAF:

METAR-TAF

Oro uostai :

Andavajlasas, Peru

platuma: 13-43S, ilguma: 073-21W, Aukštis: 3444 m

Dabartinis oras

Ataskaita buvo paskelbta 13 valandos ir 31 minutes, ne 19:00 UTC
Vėjas 9 kt iš Šiaurės/Šiaurės Rytų
Temperatūra 19°C
Drėgmė 46%
Slėgis 1034 hPa
Matomumas 10 km arba daugiau
Išsisklaidę debesys ne aukštis 1200 ft

METAR: SPHY 241900Z 03009KT 9999 SCT012 19/07 Q1034 RMK BIRD HAZARD RWY03/21 PP000

Laikas: 03:31 (08:31 UTC)

Prognozė

Ataskaita buvo paskelbta 15 valandos ir 31 minutes, ne 17:00 UTC
Prognozė galioja nuo 24 metu 18 UTC su 25 metu 18 UTC
Vėjas 12 kt iš Šiaurės
Matomumas 10 km arba daugiau
Išsisklaidę debesys ne aukštis 1500 ft
Tapsmas
nuo 25 metu 00 UTC su 25 metu 02 UTC
Vėjas kt iš Šiaurės

TAF: SPHY 241700Z 2418/2518 01012KT 9999 SCT015 TX18/2419Z TN03/2511Z BECMG 2500/2502 00000KT

Orai ataskaitas ir orų prognozės (METAR, TAF).

turimą stotys yra geltonos ir raudonos taškus žemėlapyje.

Perkelti pele per norėdami pamatyti stoties vardą.

Tada spustelėkite, norėdami matyti oro stebėjimo ir prognozės.

Norėdami pakeisti žemėlapį: spustelėkite ant žalios mygtukų su juodo kryžiaus žemyn,; žalią mygtuką su brūkšneliu, jei norite nutolinti; arba žalių rodyklių gretimoms žemėlapius.


METAR-TAF: